createdAt,value
2018-07-11T00:01:23.828Z,7.13
2018-07-11T00:03:52.778Z,7.83
2018-07-11T00:06:21.800Z,8.37
2018-07-11T00:08:49.620Z,7.97
2018-07-11T00:11:17.469Z,8.13
2018-07-11T00:13:46.075Z,9.60
2018-07-11T00:16:14.498Z,8.13
2018-07-11T00:18:42.215Z,9.00
2018-07-11T00:21:10.069Z,8.60
2018-07-11T00:23:38.193Z,8.43
2018-07-11T00:26:06.635Z,8.33
2018-07-11T00:28:34.537Z,7.63
2018-07-11T00:31:02.354Z,8.10
2018-07-11T00:33:30.788Z,8.03
2018-07-11T00:35:58.484Z,9.23
2018-07-11T00:38:26.656Z,8.57
2018-07-11T00:40:54.443Z,8.20
2018-07-11T00:43:22.261Z,8.63
2018-07-11T00:45:50.716Z,8.77
2018-07-11T00:48:18.592Z,8.30
2018-07-11T00:50:46.538Z,9.30
2018-07-11T00:53:14.838Z,8.70
2018-07-11T00:55:42.533Z,8.03
2018-07-11T00:58:24.073Z,9.77
2018-07-11T01:01:04.431Z,9.30
2018-07-11T01:03:33.853Z,10.07
2018-07-11T01:06:01.684Z,9.80
2018-07-11T01:08:30.594Z,9.00
2018-07-11T01:11:02.805Z,9.50
2018-07-11T01:13:30.875Z,9.90
2018-07-11T01:15:58.658Z,8.80
2018-07-11T01:18:26.509Z,8.63
2018-07-11T01:20:54.302Z,10.00
2018-07-11T01:23:22.117Z,10.60
2018-07-11T01:25:49.855Z,9.63
2018-07-11T01:28:17.654Z,10.20
2018-07-11T01:30:45.494Z,10.87
2018-07-11T01:33:13.305Z,11.47
2018-07-11T01:35:41.206Z,12.87
2018-07-11T01:38:08.995Z,11.40
2018-07-11T01:40:36.818Z,10.27
2018-07-11T01:43:04.609Z,10.17
2018-07-11T01:45:32.395Z,10.30
2018-07-11T01:48:00.256Z,11.53
2018-07-11T01:50:27.966Z,14.27
2018-07-11T01:52:57.412Z,13.77
2018-07-11T01:55:25.452Z,13.40
2018-07-11T01:57:55.035Z,14.67
2018-07-11T02:00:22.830Z,14.17
2018-07-11T02:02:50.698Z,12.57
2018-07-11T02:05:18.498Z,12.10
2018-07-11T02:07:46.250Z,11.87
2018-07-11T02:10:14.077Z,11.03
2018-07-11T02:12:42.567Z,9.60
2018-07-11T02:15:11.055Z,10.60
2018-07-11T02:17:39.730Z,10.80
2018-07-11T02:20:11.916Z,10.93
2018-07-11T02:22:40.067Z,11.03
2018-07-11T02:25:08.016Z,10.60
2018-07-11T02:27:36.087Z,9.50
2018-07-11T02:30:03.966Z,10.97
2018-07-11T02:32:32.483Z,10.80
2018-07-11T02:35:00.299Z,12.13
2018-07-11T02:37:28.129Z,11.43
2018-07-11T02:39:55.882Z,10.70
2018-07-11T02:42:23.755Z,9.50
2018-07-11T02:44:51.531Z,10.20
2018-07-11T02:47:25.069Z,11.20
2018-07-11T02:49:52.915Z,11.80
2018-07-11T02:52:20.710Z,10.43
2018-07-11T02:54:48.560Z,9.63
2018-07-11T02:57:16.332Z,10.33
2018-07-11T02:59:44.314Z,10.77
2018-07-11T03:02:12.099Z,11.63
2018-07-11T03:04:40.502Z,10.33
2018-07-11T03:07:09.050Z,10.70
2018-07-11T03:09:36.835Z,11.00
2018-07-11T03:12:04.500Z,12.00
2018-07-11T03:14:33.316Z,12.20
2018-07-11T03:17:01.094Z,12.20
2018-07-11T03:19:28.849Z,11.97
2018-07-11T03:21:56.642Z,13.20
2018-07-11T03:24:24.439Z,13.97
2018-07-11T03:26:52.361Z,13.97
2018-07-11T03:29:20.219Z,13.07
2018-07-11T03:31:47.992Z,8.83
2018-07-11T03:34:15.774Z,7.03
2018-07-11T03:36:43.566Z,4.10
2018-07-11T03:39:11.295Z,4.00
2018-07-11T03:41:39.118Z,4.30
2018-07-11T03:44:07.069Z,4.20
2018-07-11T03:46:35.000Z,4.90
2018-07-11T03:49:03.118Z,4.33
2018-07-11T03:51:30.998Z,4.27
2018-07-11T03:53:58.805Z,4.60
2018-07-11T03:56:26.589Z,4.60
2018-07-11T03:58:54.753Z,4.60
2018-07-11T04:01:22.542Z,3.80
2018-07-11T04:03:50.709Z,3.80
2018-07-11T04:06:18.503Z,3.50
2018-07-11T04:08:46.246Z,3.70
2018-07-11T04:11:14.158Z,3.87
2018-07-11T04:13:41.946Z,3.70
2018-07-11T04:16:09.838Z,3.50
2018-07-11T04:18:37.639Z,4.00
2018-07-11T04:21:05.458Z,3.30
2018-07-11T04:23:33.182Z,3.83
2018-07-11T04:26:01.670Z,3.80
2018-07-11T04:28:29.953Z,3.70
2018-07-11T04:30:58.071Z,3.30
2018-07-11T04:33:26.163Z,3.10
2018-07-11T04:35:54.624Z,3.70
2018-07-11T04:38:22.735Z,3.90
2018-07-11T04:40:50.759Z,3.97
2018-07-11T04:43:18.911Z,4.57
2018-07-11T04:45:48.123Z,4.83
2018-07-11T04:48:17.484Z,5.47
2018-07-11T04:50:46.197Z,4.70
2018-07-11T04:53:19.353Z,4.70
2018-07-11T04:55:47.182Z,5.10
2018-07-11T04:58:14.942Z,5.77
2018-07-11T05:00:42.709Z,4.93
2018-07-11T05:03:10.497Z,5.40
2018-07-11T05:05:38.279Z,5.23
2018-07-11T05:08:06.000Z,4.90
2018-07-11T05:10:33.711Z,4.90
2018-07-11T05:13:01.452Z,4.97
2018-07-11T05:15:29.340Z,4.30
2018-07-11T05:17:57.054Z,4.40
2018-07-11T05:20:24.820Z,4.20
2018-07-11T05:22:52.664Z,5.60
2018-07-11T05:25:20.432Z,5.93
2018-07-11T05:27:48.124Z,7.20
2018-07-11T05:30:15.924Z,8.50
2018-07-11T05:32:43.686Z,8.37
2018-07-11T05:35:11.460Z,8.20
2018-07-11T05:37:39.164Z,8.30
2018-07-11T05:40:06.865Z,7.87
2018-07-11T05:42:34.710Z,7.40
2018-07-11T05:45:02.482Z,8.10
2018-07-11T05:47:30.214Z,8.10
2018-07-11T05:49:57.999Z,8.57
2018-07-11T05:52:25.746Z,9.00
2018-07-11T05:54:53.446Z,8.40
2018-07-11T05:57:21.199Z,9.30
2018-07-11T05:59:48.966Z,10.30
2018-07-11T06:02:16.639Z,10.00
2018-07-11T06:04:44.406Z,10.50
2018-07-11T06:07:12.166Z,11.03
2018-07-11T06:09:39.925Z,10.03
2018-07-11T06:12:07.743Z,10.50
2018-07-11T06:14:35.459Z,11.70
2018-07-11T06:17:03.283Z,10.90
2018-07-11T06:19:30.997Z,12.10
2018-07-11T06:21:58.799Z,10.90
2018-07-11T06:24:26.573Z,11.13
2018-07-11T06:26:54.317Z,11.73
2018-07-11T06:29:22.026Z,11.60
2018-07-11T06:31:49.788Z,11.53
2018-07-11T06:34:17.682Z,11.20
2018-07-11T06:36:45.470Z,12.90
2018-07-11T06:39:13.291Z,11.90
2018-07-11T06:41:41.077Z,11.30
2018-07-11T06:44:08.823Z,12.10
2018-07-11T06:46:36.682Z,11.23
2018-07-11T06:49:04.510Z,10.87
2018-07-11T06:51:32.244Z,10.67
2018-07-11T06:54:00.001Z,9.57
2018-07-11T06:56:27.788Z,9.90
2018-07-11T06:58:56.181Z,9.77
2018-07-11T07:01:24.031Z,9.90
2018-07-11T07:03:51.763Z,9.70
2018-07-11T07:06:19.530Z,10.40
2018-07-11T07:08:47.289Z,10.20
2018-07-11T07:11:15.096Z,9.23
2018-07-11T07:13:42.832Z,8.73
2018-07-11T07:16:11.108Z,9.47
2018-07-11T07:18:39.101Z,9.30
2018-07-11T07:21:06.928Z,8.50
2018-07-11T07:23:34.732Z,7.40
2018-07-11T07:26:02.503Z,7.43
2018-07-11T07:28:30.267Z,8.37
2018-07-11T07:30:58.052Z,7.80
2018-07-11T07:33:25.814Z,7.53
2018-07-11T07:35:53.558Z,6.50
2018-07-11T07:38:21.446Z,7.07
2018-07-11T07:40:49.230Z,5.73
2018-07-11T07:43:17.352Z,5.83
2018-07-11T07:45:45.698Z,5.90
2018-07-11T07:48:13.507Z,5.63
2018-07-11T07:50:41.219Z,5.13
2018-07-11T07:53:09.069Z,5.80
2018-07-11T07:55:36.904Z,4.80
2018-07-11T07:58:05.145Z,4.57
2018-07-11T08:00:33.106Z,4.30
2018-07-11T08:03:01.116Z,4.80
2018-07-11T08:05:29.014Z,4.23
2018-07-11T08:07:56.830Z,4.13
2018-07-11T08:10:24.604Z,3.57
2018-07-11T08:12:52.325Z,4.00
2018-07-11T08:15:20.035Z,3.93
2018-07-11T08:17:47.730Z,3.40
2018-07-11T08:20:15.803Z,3.10
2018-07-11T08:23:21.621Z,3.23
2018-07-11T08:25:56.121Z,3.00
2018-07-11T08:31:46.497Z,3.40
2018-07-11T08:34:25.774Z,3.10
2018-07-11T08:37:16.585Z,3.10
2018-07-11T08:39:47.686Z,2.80
2018-07-11T08:43:30.453Z,3.10
2018-07-11T08:46:05.333Z,2.63
2018-07-11T08:48:49.374Z,3.03
2018-07-11T09:01:31.143Z,3.10
2018-07-11T09:04:43.332Z,3.57
2018-07-11T09:07:20.069Z,3.10
2018-07-11T09:10:25.643Z,3.13
2018-07-11T09:13:07.616Z,3.60
2018-07-11T09:15:45.010Z,3.30
2018-07-11T09:20:29.209Z,3.90
2018-07-11T09:24:15.366Z,4.30
2018-07-11T09:26:42.926Z,3.80
2018-07-11T09:29:10.526Z,4.00
2018-07-11T09:31:38.104Z,3.90
2018-07-11T09:34:05.685Z,4.60
2018-07-11T09:36:33.230Z,4.23
2018-07-11T09:39:00.849Z,4.63
2018-07-11T09:41:28.586Z,4.87
2018-07-11T09:43:56.200Z,4.67
2018-07-11T09:46:23.792Z,4.37
2018-07-11T09:48:51.436Z,4.40
2018-07-11T09:51:19.038Z,4.40
2018-07-11T09:53:47.507Z,4.80
2018-07-11T09:56:16.064Z,5.13
2018-07-11T09:58:43.689Z,4.40
2018-07-11T10:01:17.001Z,3.97
2018-07-11T10:03:44.687Z,4.33
2018-07-11T10:06:12.287Z,4.37
2018-07-11T10:08:39.922Z,4.67
2018-07-11T10:11:07.588Z,4.40
2018-07-11T10:13:35.352Z,4.70
2018-07-11T10:16:02.949Z,5.50
2018-07-11T10:18:30.581Z,5.23
2018-07-11T10:20:58.218Z,4.60
2018-07-11T10:23:25.782Z,5.23
2018-07-11T10:25:53.556Z,4.67
2018-07-11T10:28:21.305Z,4.53
2018-07-11T10:30:49.424Z,4.60
2018-07-11T10:33:16.975Z,4.57
2018-07-11T10:35:44.547Z,4.57
2018-07-11T10:38:12.582Z,4.33
2018-07-11T10:40:40.168Z,4.80
2018-07-11T10:43:08.017Z,4.70
2018-07-11T10:45:36.382Z,4.97
2018-07-11T10:48:03.945Z,5.47
2018-07-11T10:50:31.647Z,5.33
2018-07-11T10:52:59.254Z,5.50
2018-07-11T10:55:26.867Z,4.63
2018-07-11T10:57:54.597Z,5.57
2018-07-11T11:00:35.962Z,5.53
2018-07-11T11:02:51.034Z,4.77
2018-07-11T11:05:19.214Z,5.10
2018-07-11T11:07:46.785Z,4.90
2018-07-11T11:10:14.374Z,5.30
2018-07-11T11:12:41.931Z,4.83
2018-07-11T11:15:09.901Z,5.17
2018-07-11T11:17:37.501Z,4.97
2018-07-11T11:20:05.088Z,4.90
2018-07-11T11:22:32.986Z,5.23
2018-07-11T11:25:00.578Z,5.70
2018-07-11T11:27:28.221Z,5.23
2018-07-11T11:29:55.949Z,5.03
2018-07-11T11:32:23.575Z,4.90
2018-07-11T11:34:51.185Z,4.97
2018-07-11T11:37:18.894Z,4.30
2018-07-11T11:39:46.460Z,4.80
2018-07-11T11:42:14.223Z,5.50
2018-07-11T11:44:41.658Z,4.90
2018-07-11T11:47:09.220Z,5.17
2018-07-11T11:49:36.873Z,4.87
2018-07-11T11:52:04.458Z,5.00
2018-07-11T11:54:32.025Z,5.30
2018-07-11T11:56:59.638Z,4.43
2018-07-11T11:59:27.198Z,4.83
2018-07-11T12:01:54.841Z,5.90
2018-07-11T12:04:22.485Z,4.40
2018-07-11T12:06:50.060Z,4.70
2018-07-11T12:09:17.637Z,4.73
2018-07-11T12:11:45.270Z,4.40
2018-07-11T12:14:12.873Z,4.00
2018-07-11T12:16:40.445Z,3.90
2018-07-11T12:19:08.018Z,4.07
2018-07-11T12:21:35.663Z,4.23
2018-07-11T12:24:03.177Z,4.70
2018-07-11T12:26:32.854Z,4.10
2018-07-11T12:29:00.477Z,4.50
2018-07-11T12:31:28.073Z,4.23
2018-07-11T12:33:55.658Z,4.60
2018-07-11T12:36:23.229Z,4.20
2018-07-11T12:38:52.537Z,4.10
2018-07-11T12:41:20.206Z,3.80
2018-07-11T12:43:47.785Z,4.30
2018-07-11T12:46:15.774Z,4.47
2018-07-11T12:48:49.124Z,4.00
2018-07-11T12:51:16.704Z,4.43
2018-07-11T12:53:44.397Z,4.20
2018-07-11T12:56:12.015Z,4.47
2018-07-11T12:58:39.655Z,4.93
2018-07-11T13:01:07.317Z,4.50
2018-07-11T13:03:34.880Z,4.60
2018-07-11T13:06:02.602Z,4.77
2018-07-11T13:08:30.199Z,4.77
2018-07-11T13:10:57.765Z,4.97
2018-07-11T13:13:25.432Z,5.03
2018-07-11T13:15:53.042Z,4.93
2018-07-11T13:18:20.897Z,4.70
2018-07-11T13:20:48.489Z,4.40
2018-07-11T13:23:16.094Z,5.30
2018-07-11T13:25:43.733Z,5.10
2018-07-11T13:28:11.355Z,5.13
2018-07-11T13:30:38.918Z,5.37
2018-07-11T13:33:06.569Z,6.10
2018-07-11T13:35:34.205Z,5.20
2018-07-11T13:38:01.869Z,5.97
2018-07-11T13:40:29.555Z,6.20
2018-07-11T13:42:57.225Z,5.70
2018-07-11T13:45:24.768Z,6.20
2018-07-11T13:47:58.140Z,6.63
2018-07-11T13:50:25.681Z,5.77
2018-07-11T13:52:53.657Z,5.60
2018-07-11T13:55:21.256Z,5.23
2018-07-11T13:57:49.247Z,5.17
2018-07-11T14:00:16.820Z,5.80
2018-07-11T14:02:44.391Z,6.47
2018-07-11T14:05:11.926Z,6.07
2018-07-11T14:07:39.526Z,6.23
2018-07-11T14:10:07.223Z,6.20
2018-07-11T14:12:34.886Z,6.53
2018-07-11T14:15:02.448Z,6.90
2018-07-11T14:17:30.076Z,7.87
2018-07-11T14:19:57.865Z,8.27
2018-07-11T14:22:25.450Z,7.40
2018-07-11T14:24:53.116Z,8.73
2018-07-11T14:27:20.978Z,7.90
2018-07-11T14:29:48.776Z,9.40
2018-07-11T14:32:16.287Z,9.27
2018-07-11T14:34:43.874Z,9.90
2018-07-11T14:37:11.431Z,9.90
2018-07-11T14:39:38.968Z,9.10
2018-07-11T14:42:06.550Z,10.07
2018-07-11T14:44:34.173Z,9.60
2018-07-11T14:47:01.987Z,8.90
2018-07-11T14:49:29.616Z,9.67
2018-07-11T14:51:57.368Z,9.40
2018-07-11T14:54:25.035Z,10.60
2018-07-11T14:56:52.738Z,9.40
2018-07-11T14:59:20.389Z,8.10
2018-07-11T15:01:47.930Z,8.53
2018-07-11T15:04:15.515Z,8.33
2018-07-11T15:06:43.084Z,8.50
2018-07-11T15:09:11.047Z,7.90
2018-07-11T15:11:38.333Z,8.67
2018-07-11T15:14:05.994Z,8.00
2018-07-11T15:16:33.604Z,8.00
2018-07-11T15:19:01.197Z,7.50
2018-07-11T15:21:28.791Z,8.43
2018-07-11T15:23:56.429Z,7.67
2018-07-11T15:26:25.095Z,8.40
2018-07-11T15:28:53.211Z,8.30
2018-07-11T15:31:20.850Z,7.30
2018-07-11T15:33:48.580Z,8.40
2018-07-11T15:36:16.548Z,7.80
2018-07-11T15:38:44.130Z,7.40
2018-07-11T15:41:11.801Z,8.10
2018-07-11T15:43:40.344Z,8.27
2018-07-11T15:46:08.034Z,9.10
2018-07-11T15:48:35.666Z,8.40
2018-07-11T15:51:03.330Z,8.80
2018-07-11T15:53:30.904Z,10.20
2018-07-11T15:55:59.406Z,9.90
2018-07-11T15:58:27.529Z,9.57
2018-07-11T16:00:59.333Z,9.07
2018-07-11T16:03:26.979Z,9.40
2018-07-11T16:05:55.274Z,10.60
2018-07-11T16:08:22.884Z,10.80
2018-07-11T16:10:51.731Z,10.40
2018-07-11T16:13:19.370Z,11.03
2018-07-11T16:15:47.063Z,10.70
2018-07-11T16:18:14.684Z,11.70
2018-07-11T16:20:42.294Z,11.30
2018-07-11T16:23:10.310Z,11.20
2018-07-11T16:25:38.834Z,11.50
2018-07-11T16:28:06.701Z,10.73
2018-07-11T16:30:34.566Z,12.13
2018-07-11T16:33:02.462Z,10.67
2018-07-11T16:35:30.340Z,11.03
2018-07-11T16:37:57.908Z,11.33
2018-07-11T16:40:25.979Z,10.13
2018-07-11T16:42:53.690Z,11.07
2018-07-11T16:45:21.333Z,11.80
2018-07-11T16:47:48.950Z,12.20
2018-07-11T16:50:17.122Z,11.60
2018-07-11T16:52:45.025Z,10.87
2018-07-11T16:55:12.689Z,12.50
2018-07-11T16:57:47.810Z,12.00
2018-07-11T17:00:19.388Z,11.60
2018-07-11T17:02:50.591Z,12.70
2018-07-11T17:05:19.911Z,13.40
2018-07-11T17:07:55.644Z,12.63
2018-07-11T17:10:23.310Z,12.57
2018-07-11T17:13:03.296Z,11.93
2018-07-11T17:15:32.307Z,12.50
2018-07-11T17:17:59.929Z,11.73
2018-07-11T17:20:27.597Z,13.10
2018-07-11T17:22:57.660Z,12.03
2018-07-11T17:25:31.581Z,11.43
2018-07-11T17:28:01.682Z,12.00
2018-07-11T17:30:37.363Z,12.40
2018-07-11T17:33:06.549Z,11.93
2018-07-11T17:35:34.681Z,10.23
2018-07-11T17:38:03.082Z,10.70
2018-07-11T17:40:35.929Z,11.50
2018-07-11T17:43:05.156Z,11.10
2018-07-11T17:45:34.622Z,10.57
2018-07-11T17:48:11.329Z,10.97
2018-07-11T17:50:39.007Z,10.50
2018-07-11T17:53:07.522Z,10.20
2018-07-11T17:55:36.499Z,11.50
2018-07-11T17:58:04.155Z,11.53
2018-07-11T18:00:51.977Z,12.70
2018-07-11T18:03:35.488Z,12.37
2018-07-11T18:06:14.519Z,12.80
2018-07-11T18:08:50.674Z,11.87
2018-07-11T18:11:18.309Z,13.70
2018-07-11T18:13:46.966Z,13.60
2018-07-11T18:16:38.770Z,13.30
2018-07-11T18:20:09.937Z,12.57
2018-07-11T18:22:51.940Z,11.27
2018-07-11T18:25:35.086Z,11.23
2018-07-11T18:28:26.030Z,11.37
2018-07-11T18:31:01.353Z,11.73
2018-07-11T18:33:39.428Z,11.40
2018-07-11T18:36:18.171Z,12.53
2018-07-11T18:38:53.518Z,12.47
2018-07-11T18:41:34.987Z,13.23
2018-07-11T18:44:14.051Z,12.50
2018-07-11T18:46:53.974Z,13.00
2018-07-11T18:50:30.300Z,14.70
2018-07-11T18:53:08.938Z,15.53
2018-07-11T18:56:42.911Z,15.73
2018-07-11T18:59:26.949Z,15.60
2018-07-11T19:02:04.720Z,17.87
2018-07-11T19:04:43.746Z,14.47
2018-07-11T19:07:23.445Z,13.73
2018-07-11T19:09:53.445Z,14.00
2018-07-11T19:12:26.536Z,11.90
2018-07-11T19:15:00.396Z,13.63
2018-07-11T19:18:36.668Z,12.70
2018-07-11T19:21:12.613Z,13.27
2018-07-11T19:23:52.292Z,12.77
2018-07-11T19:26:56.858Z,12.90
2018-07-11T19:29:29.880Z,12.53
2018-07-11T19:34:15.581Z,13.13
2018-07-11T19:36:58.939Z,14.13
2018-07-11T19:39:35.344Z,15.10
2018-07-11T19:42:15.018Z,15.43
2018-07-11T19:44:53.015Z,15.90
2018-07-11T19:47:34.394Z,15.17
2018-07-11T19:50:25.958Z,15.53
2018-07-11T19:53:05.264Z,18.30
2018-07-11T19:55:43.232Z,20.67
2018-07-11T19:58:10.940Z,22.87
2018-07-11T20:00:38.558Z,23.50
2018-07-11T20:03:06.169Z,26.60
2018-07-11T20:05:34.392Z,27.50
2018-07-11T20:08:02.197Z,29.40
2018-07-11T20:10:29.802Z,28.70
2018-07-11T20:12:57.528Z,31.83
2018-07-11T20:15:25.224Z,30.50
2018-07-11T20:17:52.843Z,30.77
2018-07-11T20:20:20.417Z,31.40
2018-07-11T20:22:48.060Z,31.47
2018-07-11T20:25:16.538Z,29.50
2018-07-11T20:27:44.148Z,32.53
2018-07-11T20:30:11.680Z,32.57
2018-07-11T20:32:39.311Z,32.70
2018-07-11T20:35:06.854Z,33.17
2018-07-11T20:37:34.950Z,34.60
2018-07-11T20:40:02.627Z,36.00
2018-07-11T20:42:30.266Z,38.00
2018-07-11T20:44:57.859Z,39.07
2018-07-11T20:47:25.473Z,41.27
2018-07-11T20:49:53.128Z,42.33
2018-07-11T20:52:20.716Z,40.80
2018-07-11T20:54:48.262Z,40.83
2018-07-11T20:57:15.882Z,41.60
2018-07-11T20:59:49.028Z,43.10
2018-07-11T21:02:28.019Z,44.70
2018-07-11T21:05:05.540Z,44.47
2018-07-11T21:07:48.206Z,43.37
2018-07-11T21:10:21.570Z,43.20
2018-07-11T21:13:02.308Z,43.20
2018-07-11T21:15:48.762Z,43.00
2018-07-11T21:18:22.264Z,42.90
2018-07-11T21:20:49.988Z,43.90
2018-07-11T21:23:17.564Z,44.40
2018-07-11T21:25:45.120Z,44.50
2018-07-11T21:28:12.780Z,44.20
2018-07-11T21:30:40.457Z,42.80
2018-07-11T21:33:08.100Z,45.70
2018-07-11T21:35:35.658Z,47.20
2018-07-11T21:38:03.305Z,46.17
2018-07-11T21:40:30.846Z,46.37
2018-07-11T21:42:58.441Z,45.57
2018-07-11T21:45:26.054Z,44.03
2018-07-11T21:47:53.800Z,46.20
2018-07-11T21:50:21.313Z,49.00
2018-07-11T21:52:48.870Z,46.90
2018-07-11T21:55:16.403Z,46.10
2018-07-11T21:57:43.972Z,46.07
2018-07-11T22:00:18.131Z,44.80
2018-07-11T22:02:48.046Z,39.47
2018-07-11T22:05:15.687Z,42.40
2018-07-11T22:07:43.300Z,42.23
2018-07-11T22:10:10.893Z,40.43
2018-07-11T22:12:38.460Z,45.00
2018-07-11T22:15:06.043Z,46.00
2018-07-11T22:17:45.149Z,47.97
2018-07-11T22:20:11.717Z,48.77
2018-07-11T22:22:38.211Z,49.20
2018-07-11T22:25:04.721Z,49.87
2018-07-11T22:27:31.222Z,51.50
2018-07-11T22:29:57.741Z,53.47
2018-07-11T22:32:24.242Z,53.40
2018-07-11T22:34:50.760Z,51.07
2018-07-11T22:37:17.254Z,51.83
2018-07-11T22:39:43.771Z,52.03
2018-07-11T22:42:10.724Z,50.50
2018-07-11T22:44:37.344Z,50.10
2018-07-11T22:47:03.882Z,49.17
2018-07-11T22:49:30.411Z,51.17
2018-07-11T22:51:57.230Z,52.47
2018-07-11T22:54:23.741Z,52.97
2018-07-11T22:56:50.366Z,53.13
2018-07-11T22:59:16.880Z,51.87
2018-07-11T23:01:43.376Z,48.60
2018-07-11T23:04:09.889Z,46.50
2018-07-11T23:06:36.386Z,46.57
2018-07-11T23:09:03.245Z,45.90
2018-07-11T23:11:33.227Z,46.80
2018-07-11T23:14:00.226Z,46.27
2018-07-11T23:16:26.807Z,47.70
2018-07-11T23:18:53.316Z,42.83
2018-07-11T23:21:19.796Z,43.77
2018-07-11T23:23:46.540Z,42.73
2018-07-11T23:26:13.027Z,43.73
2018-07-11T23:28:39.538Z,45.37
2018-07-11T23:31:06.034Z,44.67
2018-07-11T23:33:32.525Z,46.17
2018-07-11T23:35:59.034Z,45.87
2018-07-11T23:38:25.625Z,46.40
2018-07-11T23:40:52.600Z,44.20
2018-07-11T23:43:19.089Z,41.87
2018-07-11T23:45:45.764Z,44.77
2018-07-11T23:48:12.275Z,48.17
2018-07-11T23:50:39.253Z,51.37
2018-07-11T23:53:05.747Z,46.70
2018-07-11T23:55:32.262Z,46.30
2018-07-11T23:57:58.748Z,52.93
